sensor_id;sensor_type;location;lat;lon;timestamp;P1;durP1;ratioP1;P2;durP2;ratioP2
46429;SDS011;32131;53.454;-6.180;2024-02-14T00:00:44;8.50;;;4.68;;
46429;SDS011;32131;53.454;-6.180;2024-02-14T00:03:12;10.70;;;4.70;;
46429;SDS011;32131;53.454;-6.180;2024-02-14T00:05:41;12.17;;;5.47;;
46429;SDS011;32131;53.454;-6.180;2024-02-14T00:08:11;10.73;;;4.85;;
46429;SDS011;32131;53.454;-6.180;2024-02-14T00:10:41;14.30;;;5.47;;
46429;SDS011;32131;53.454;-6.180;2024-02-14T00:15:41;10.15;;;5.50;;
46429;SDS011;32131;53.454;-6.180;2024-02-14T00:18:09;11.68;;;5.13;;
46429;SDS011;32131;53.454;-6.180;2024-02-14T00:20:38;13.40;;;6.20;;
46429;SDS011;32131;53.454;-6.180;2024-02-14T00:23:07;12.00;;;6.30;;
46429;SDS011;32131;53.454;-6.180;2024-02-14T00:25:36;23.08;;;6.20;;
46429;SDS011;32131;53.454;-6.180;2024-02-14T00:28:05;13.07;;;6.70;;
46429;SDS011;32131;53.454;-6.180;2024-02-14T00:30:35;19.30;;;6.93;;
46429;SDS011;32131;53.454;-6.180;2024-02-14T00:33:05;12.35;;;5.65;;
46429;SDS011;32131;53.454;-6.180;2024-02-14T00:35:33;9.75;;;5.97;;
46429;SDS011;32131;53.454;-6.180;2024-02-14T00:38:02;14.80;;;6.45;;
46429;SDS011;32131;53.454;-6.180;2024-02-14T00:40:31;16.38;;;6.45;;
46429;SDS011;32131;53.454;-6.180;2024-02-14T00:42:59;13.18;;;6.15;;
46429;SDS011;32131;53.454;-6.180;2024-02-14T00:45:29;15.85;;;6.53;;
46429;SDS011;32131;53.454;-6.180;2024-02-14T00:47:57;14.95;;;6.53;;
46429;SDS011;32131;53.454;-6.180;2024-02-14T00:50:27;16.95;;;6.18;;
46429;SDS011;32131;53.454;-6.180;2024-02-14T00:55:26;11.57;;;5.75;;
46429;SDS011;32131;53.454;-6.180;2024-02-14T00:57:55;12.85;;;5.68;;
46429;SDS011;32131;53.454;-6.180;2024-02-14T01:00:25;13.38;;;6.30;;
46429;SDS011;32131;53.454;-6.180;2024-02-14T01:02:54;16.48;;;6.47;;
46429;SDS011;32131;53.454;-6.180;2024-02-14T01:05:24;17.13;;;6.50;;
46429;SDS011;32131;53.454;-6.180;2024-02-14T01:07:54;15.38;;;6.38;;
46429;SDS011;32131;53.454;-6.180;2024-02-14T01:10:23;11.13;;;6.25;;
46429;SDS011;32131;53.454;-6.180;2024-02-14T01:12:51;19.00;;;7.13;;
46429;SDS011;32131;53.454;-6.180;2024-02-14T01:15:19;9.05;;;5.72;;
46429;SDS011;32131;53.454;-6.180;2024-02-14T01:17:48;11.82;;;5.45;;
46429;SDS011;32131;53.454;-6.180;2024-02-14T01:20:19;19.77;;;6.97;;
46429;SDS011;32131;53.454;-6.180;2024-02-14T01:22:48;17.08;;;6.97;;
46429;SDS011;32131;53.454;-6.180;2024-02-14T01:25:21;12.20;;;6.35;;
46429;SDS011;32131;53.454;-6.180;2024-02-14T01:27:50;13.77;;;7.72;;
46429;SDS011;32131;53.454;-6.180;2024-02-14T01:30:21;14.73;;;6.60;;
46429;SDS011;32131;53.454;-6.180;2024-02-14T01:32:51;16.85;;;6.45;;
46429;SDS011;32131;53.454;-6.180;2024-02-14T01:35:20;15.13;;;7.30;;
46429;SDS011;32131;53.454;-6.180;2024-02-14T01:37:49;18.42;;;7.70;;
46429;SDS011;32131;53.454;-6.180;2024-02-14T01:40:23;16.08;;;7.43;;
46429;SDS011;32131;53.454;-6.180;2024-02-14T01:42:52;15.43;;;6.93;;
46429;SDS011;32131;53.454;-6.180;2024-02-14T01:45:22;14.15;;;7.57;;
46429;SDS011;32131;53.454;-6.180;2024-02-14T01:47:53;16.02;;;7.43;;
46429;SDS011;32131;53.454;-6.180;2024-02-14T01:50:22;11.73;;;6.95;;
46429;SDS011;32131;53.454;-6.180;2024-02-14T01:52:56;23.88;;;8.10;;
46429;SDS011;32131;53.454;-6.180;2024-02-14T01:55:28;15.43;;;7.53;;
46429;SDS011;32131;53.454;-6.180;2024-02-14T01:57:58;13.10;;;7.28;;
46429;SDS011;32131;53.454;-6.180;2024-02-14T02:00:27;46.88;;;9.85;;
46429;SDS011;32131;53.454;-6.180;2024-02-14T02:02:56;25.15;;;8.05;;
46429;SDS011;32131;53.454;-6.180;2024-02-14T02:05:25;26.65;;;8.05;;
46429;SDS011;32131;53.454;-6.180;2024-02-14T02:10:24;25.55;;;7.82;;
46429;SDS011;32131;53.454;-6.180;2024-02-14T02:12:58;15.55;;;8.02;;
46429;SDS011;32131;53.454;-6.180;2024-02-14T02:15:27;36.45;;;10.68;;
46429;SDS011;32131;53.454;-6.180;2024-02-14T02:17:57;25.02;;;7.53;;
46429;SDS011;32131;53.454;-6.180;2024-02-14T02:22:57;14.55;;;6.85;;
46429;SDS011;32131;53.454;-6.180;2024-02-14T02:25:26;21.85;;;8.32;;
46429;SDS011;32131;53.454;-6.180;2024-02-14T02:27:54;23.67;;;9.75;;
46429;SDS011;32131;53.454;-6.180;2024-02-14T02:30:25;21.02;;;9.35;;
46429;SDS011;32131;53.454;-6.180;2024-02-14T02:32:53;16.17;;;8.48;;
46429;SDS011;32131;53.454;-6.180;2024-02-14T02:35:23;16.98;;;7.38;;
46429;SDS011;32131;53.454;-6.180;2024-02-14T02:37:53;17.23;;;7.50;;
46429;SDS011;32131;53.454;-6.180;2024-02-14T02:40:23;19.73;;;8.65;;
46429;SDS011;32131;53.454;-6.180;2024-02-14T02:42:52;18.98;;;8.77;;
46429;SDS011;32131;53.454;-6.180;2024-02-14T02:45:22;18.30;;;8.57;;
46429;SDS011;32131;53.454;-6.180;2024-02-14T02:47:51;15.75;;;8.30;;
46429;SDS011;32131;53.454;-6.180;2024-02-14T02:50:20;23.35;;;8.73;;
46429;SDS011;32131;53.454;-6.180;2024-02-14T02:52:50;32.45;;;9.85;;
46429;SDS011;32131;53.454;-6.180;2024-02-14T02:55:19;58.50;;;9.27;;
46429;SDS011;32131;53.454;-6.180;2024-02-14T02:57:49;20.50;;;6.22;;
46429;SDS011;32131;53.454;-6.180;2024-02-14T03:00:19;48.00;;;8.27;;
46429;SDS011;32131;53.454;-6.180;2024-02-14T03:02:48;58.10;;;7.95;;
46429;SDS011;32131;53.454;-6.180;2024-02-14T03:05:17;43.15;;;6.43;;
46429;SDS011;32131;53.454;-6.180;2024-02-14T03:07:46;37.78;;;6.53;;
46429;SDS011;32131;53.454;-6.180;2024-02-14T03:10:16;23.70;;;5.95;;
46429;SDS011;32131;53.454;-6.180;2024-02-14T03:12:49;26.73;;;5.80;;
46429;SDS011;32131;53.454;-6.180;2024-02-14T03:15:18;25.45;;;5.45;;
46429;SDS011;32131;53.454;-6.180;2024-02-14T03:17:47;22.65;;;5.78;;
46429;SDS011;32131;53.454;-6.180;2024-02-14T03:20:15;22.88;;;5.47;;
46429;SDS011;32131;53.454;-6.180;2024-02-14T03:22:46;11.98;;;4.97;;
46429;SDS011;32131;53.454;-6.180;2024-02-14T03:25:16;11.68;;;5.25;;
46429;SDS011;32131;53.454;-6.180;2024-02-14T03:27:45;16.88;;;5.75;;
46429;SDS011;32131;53.454;-6.180;2024-02-14T03:30:19;14.23;;;6.07;;
46429;SDS011;32131;53.454;-6.180;2024-02-14T03:32:49;13.60;;;6.03;;
46429;SDS011;32131;53.454;-6.180;2024-02-14T03:35:19;15.63;;;6.22;;
46429;SDS011;32131;53.454;-6.180;2024-02-14T03:37:50;12.13;;;5.87;;
46429;SDS011;32131;53.454;-6.180;2024-02-14T03:40:19;12.32;;;6.15;;
46429;SDS011;32131;53.454;-6.180;2024-02-14T03:42:51;13.13;;;6.25;;
46429;SDS011;32131;53.454;-6.180;2024-02-14T03:45:24;14.35;;;6.65;;
46429;SDS011;32131;53.454;-6.180;2024-02-14T03:47:54;13.85;;;6.80;;
46429;SDS011;32131;53.454;-6.180;2024-02-14T03:50:23;14.95;;;6.82;;
46429;SDS011;32131;53.454;-6.180;2024-02-14T03:52:51;13.50;;;5.53;;
46429;SDS011;32131;53.454;-6.180;2024-02-14T03:55:22;9.38;;;5.03;;
46429;SDS011;32131;53.454;-6.180;2024-02-14T03:57:51;8.55;;;4.22;;
46429;SDS011;32131;53.454;-6.180;2024-02-14T04:00:23;10.82;;;4.13;;
46429;SDS011;32131;53.454;-6.180;2024-02-14T04:02:52;8.75;;;3.83;;
46429;SDS011;32131;53.454;-6.180;2024-02-14T04:05:25;6.95;;;2.20;;
46429;SDS011;32131;53.454;-6.180;2024-02-14T04:07:55;6.35;;;2.92;;
46429;SDS011;32131;53.454;-6.180;2024-02-14T04:10:23;3.88;;;1.70;;
46429;SDS011;32131;53.454;-6.180;2024-02-14T04:12:52;8.52;;;2.25;;
46429;SDS011;32131;53.454;-6.180;2024-02-14T04:15:20;5.97;;;1.52;;
46429;SDS011;32131;53.454;-6.180;2024-02-14T04:17:52;3.72;;;1.08;;
46429;SDS011;32131;53.454;-6.180;2024-02-14T04:20:27;6.22;;;1.63;;
46429;SDS011;32131;53.454;-6.180;2024-02-14T04:25:26;2.42;;;1.38;;
46429;SDS011;32131;53.454;-6.180;2024-02-14T04:27:55;6.78;;;1.77;;
46429;SDS011;32131;53.454;-6.180;2024-02-14T04:30:26;4.93;;;1.30;;
46429;SDS011;32131;53.454;-6.180;2024-02-14T04:32:56;7.00;;;2.10;;
46429;SDS011;32131;53.454;-6.180;2024-02-14T04:35:25;4.65;;;1.50;;
46429;SDS011;32131;53.454;-6.180;2024-02-14T04:37:55;10.13;;;1.77;;
46429;SDS011;32131;53.454;-6.180;2024-02-14T04:40:24;10.70;;;1.30;;
46429;SDS011;32131;53.454;-6.180;2024-02-14T04:42:52;3.58;;;1.00;;
46429;SDS011;32131;53.454;-6.180;2024-02-14T04:47:51;2.55;;;1.15;;
46429;SDS011;32131;53.454;-6.180;2024-02-14T04:50:21;3.50;;;1.20;;
46429;SDS011;32131;53.454;-6.180;2024-02-14T04:52:49;4.15;;;1.27;;
46429;SDS011;32131;53.454;-6.180;2024-02-14T04:55:18;5.57;;;1.88;;
46429;SDS011;32131;53.454;-6.180;2024-02-14T04:57:46;5.03;;;1.42;;
46429;SDS011;32131;53.454;-6.180;2024-02-14T05:00:16;4.90;;;1.30;;
46429;SDS011;32131;53.454;-6.180;2024-02-14T05:02:45;5.10;;;1.55;;
46429;SDS011;32131;53.454;-6.180;2024-02-14T05:05:14;4.80;;;1.30;;
46429;SDS011;32131;53.454;-6.180;2024-02-14T05:07:45;3.55;;;1.35;;
46429;SDS011;32131;53.454;-6.180;2024-02-14T05:10:13;2.70;;;1.15;;
46429;SDS011;32131;53.454;-6.180;2024-02-14T05:12:42;3.63;;;1.08;;
46429;SDS011;32131;53.454;-6.180;2024-02-14T05:15:12;5.53;;;1.20;;
46429;SDS011;32131;53.454;-6.180;2024-02-14T05:17:41;3.17;;;1.10;;
46429;SDS011;32131;53.454;-6.180;2024-02-14T05:20:11;6.40;;;1.52;;
46429;SDS011;32131;53.454;-6.180;2024-02-14T05:22:40;7.70;;;1.38;;
46429;SDS011;32131;53.454;-6.180;2024-02-14T05:25:10;7.35;;;1.33;;
46429;SDS011;32131;53.454;-6.180;2024-02-14T05:27:38;6.07;;;1.30;;
46429;SDS011;32131;53.454;-6.180;2024-02-14T05:30:07;5.70;;;1.40;;
46429;SDS011;32131;53.454;-6.180;2024-02-14T05:32:36;7.63;;;1.45;;
46429;SDS011;32131;53.454;-6.180;2024-02-14T05:35:06;5.50;;;1.55;;
46429;SDS011;32131;53.454;-6.180;2024-02-14T05:37:36;8.60;;;2.20;;
46429;SDS011;32131;53.454;-6.180;2024-02-14T05:40:05;4.80;;;1.83;;
46429;SDS011;32131;53.454;-6.180;2024-02-14T05:42:36;6.57;;;1.48;;
46429;SDS011;32131;53.454;-6.180;2024-02-14T05:45:06;12.90;;;1.65;;
46429;SDS011;32131;53.454;-6.180;2024-02-14T05:47:38;12.25;;;2.40;;
46429;SDS011;32131;53.454;-6.180;2024-02-14T05:50:08;6.93;;;1.67;;
46429;SDS011;32131;53.454;-6.180;2024-02-14T05:52:37;4.55;;;1.52;;
46429;SDS011;32131;53.454;-6.180;2024-02-14T05:55:06;10.93;;;1.65;;
46429;SDS011;32131;53.454;-6.180;2024-02-14T05:57:37;13.80;;;1.75;;
46429;SDS011;32131;53.454;-6.180;2024-02-14T06:00:06;6.38;;;1.42;;
46429;SDS011;32131;53.454;-6.180;2024-02-14T06:02:38;7.45;;;2.00;;
46429;SDS011;32131;53.454;-6.180;2024-02-14T06:05:06;12.70;;;2.30;;
46429;SDS011;32131;53.454;-6.180;2024-02-14T06:07:36;9.85;;;2.20;;
46429;SDS011;32131;53.454;-6.180;2024-02-14T06:10:05;7.32;;;1.48;;
46429;SDS011;32131;53.454;-6.180;2024-02-14T06:12:39;9.52;;;1.85;;
46429;SDS011;32131;53.454;-6.180;2024-02-14T06:15:09;11.05;;;2.33;;
46429;SDS011;32131;53.454;-6.180;2024-02-14T06:17:37;10.60;;;2.30;;
46429;SDS011;32131;53.454;-6.180;2024-02-14T06:20:07;9.63;;;1.98;;
46429;SDS011;32131;53.454;-6.180;2024-02-14T06:22:36;11.98;;;1.98;;
46429;SDS011;32131;53.454;-6.180;2024-02-14T06:25:16;12.27;;;2.15;;
46429;SDS011;32131;53.454;-6.180;2024-02-14T06:27:45;10.00;;;1.83;;
46429;SDS011;32131;53.454;-6.180;2024-02-14T06:30:14;16.67;;;2.50;;
46429;SDS011;32131;53.454;-6.180;2024-02-14T06:32:44;11.02;;;2.28;;
46429;SDS011;32131;53.454;-6.180;2024-02-14T06:35:14;14.05;;;1.83;;
46429;SDS011;32131;53.454;-6.180;2024-02-14T06:37:46;11.50;;;2.33;;
46429;SDS011;32131;53.454;-6.180;2024-02-14T06:40:28;9.73;;;2.35;;
46429;SDS011;32131;53.454;-6.180;2024-02-14T06:43:00;12.35;;;2.35;;
46429;SDS011;32131;53.454;-6.180;2024-02-14T06:45:28;11.40;;;2.30;;
46429;SDS011;32131;53.454;-6.180;2024-02-14T06:47:57;15.45;;;2.65;;
46429;SDS011;32131;53.454;-6.180;2024-02-14T06:50:26;8.30;;;2.60;;
46429;SDS011;32131;53.454;-6.180;2024-02-14T06:52:56;8.50;;;2.05;;
46429;SDS011;32131;53.454;-6.180;2024-02-14T06:55:26;8.40;;;2.45;;
46429;SDS011;32131;53.454;-6.180;2024-02-14T06:57:55;19.40;;;2.67;;
46429;SDS011;32131;53.454;-6.180;2024-02-14T07:00:25;15.88;;;2.60;;
46429;SDS011;32131;53.454;-6.180;2024-02-14T07:02:55;7.90;;;2.00;;
46429;SDS011;32131;53.454;-6.180;2024-02-14T07:05:23;7.57;;;2.25;;
46429;SDS011;32131;53.454;-6.180;2024-02-14T07:07:53;14.50;;;2.93;;
46429;SDS011;32131;53.454;-6.180;2024-02-14T07:10:21;16.05;;;2.63;;
46429;SDS011;32131;53.454;-6.180;2024-02-14T07:12:50;17.98;;;3.42;;
46429;SDS011;32131;53.454;-6.180;2024-02-14T07:15:19;15.40;;;2.35;;
46429;SDS011;32131;53.454;-6.180;2024-02-14T07:17:52;15.98;;;3.08;;
46429;SDS011;32131;53.454;-6.180;2024-02-14T07:20:23;18.20;;;3.30;;
46429;SDS011;32131;53.454;-6.180;2024-02-14T07:22:53;36.80;;;5.05;;
46429;SDS011;32131;53.454;-6.180;2024-02-14T07:25:23;17.17;;;2.95;;
46429;SDS011;32131;53.454;-6.180;2024-02-14T07:27:52;25.08;;;3.90;;
46429;SDS011;32131;53.454;-6.180;2024-02-14T07:30:22;21.00;;;3.45;;
46429;SDS011;32131;53.454;-6.180;2024-02-14T07:32:56;29.90;;;4.43;;
46429;SDS011;32131;53.454;-6.180;2024-02-14T07:35:25;30.55;;;3.20;;
46429;SDS011;32131;53.454;-6.180;2024-02-14T07:37:54;22.30;;;3.60;;
46429;SDS011;32131;53.454;-6.180;2024-02-14T07:40:24;21.75;;;4.13;;
46429;SDS011;32131;53.454;-6.180;2024-02-14T07:42:53;25.73;;;3.80;;
46429;SDS011;32131;53.454;-6.180;2024-02-14T07:45:22;15.35;;;3.10;;
46429;SDS011;32131;53.454;-6.180;2024-02-14T07:47:51;19.20;;;3.15;;
46429;SDS011;32131;53.454;-6.180;2024-02-14T07:50:21;30.60;;;4.90;;
46429;SDS011;32131;53.454;-6.180;2024-02-14T07:52:49;31.88;;;4.55;;
46429;SDS011;32131;53.454;-6.180;2024-02-14T07:55:19;26.08;;;4.28;;
46429;SDS011;32131;53.454;-6.180;2024-02-14T07:57:49;18.85;;;4.95;;
46429;SDS011;32131;53.454;-6.180;2024-02-14T08:00:19;28.35;;;3.83;;
46429;SDS011;32131;53.454;-6.180;2024-02-14T08:02:52;15.73;;;3.40;;
46429;SDS011;32131;53.454;-6.180;2024-02-14T08:05:22;17.70;;;3.45;;
46429;SDS011;32131;53.454;-6.180;2024-02-14T08:07:52;30.88;;;4.28;;
46429;SDS011;32131;53.454;-6.180;2024-02-14T08:10:21;27.23;;;5.03;;
46429;SDS011;32131;53.454;-6.180;2024-02-14T08:12:49;23.77;;;3.97;;
46429;SDS011;32131;53.454;-6.180;2024-02-14T08:15:18;12.98;;;2.85;;
46429;SDS011;32131;53.454;-6.180;2024-02-14T08:17:47;33.33;;;4.20;;
46429;SDS011;32131;53.454;-6.180;2024-02-14T08:20:16;26.67;;;4.30;;
46429;SDS011;32131;53.454;-6.180;2024-02-14T08:22:46;18.63;;;4.38;;
46429;SDS011;32131;53.454;-6.180;2024-02-14T08:25:16;18.25;;;3.45;;
46429;SDS011;32131;53.454;-6.180;2024-02-14T08:27:45;19.95;;;3.78;;
46429;SDS011;32131;53.454;-6.180;2024-02-14T08:30:14;16.60;;;3.93;;
46429;SDS011;32131;53.454;-6.180;2024-02-14T08:32:44;33.65;;;5.45;;
46429;SDS011;32131;53.454;-6.180;2024-02-14T08:35:13;19.33;;;4.50;;
46429;SDS011;32131;53.454;-6.180;2024-02-14T08:37:42;23.83;;;4.30;;
46429;SDS011;32131;53.454;-6.180;2024-02-14T08:40:12;20.17;;;4.03;;
46429;SDS011;32131;53.454;-6.180;2024-02-14T08:42:42;13.65;;;3.85;;
46429;SDS011;32131;53.454;-6.180;2024-02-14T08:45:12;19.27;;;4.13;;
46429;SDS011;32131;53.454;-6.180;2024-02-14T08:47:43;15.63;;;3.53;;
46429;SDS011;32131;53.454;-6.180;2024-02-14T08:50:12;24.40;;;3.90;;
46429;SDS011;32131;53.454;-6.180;2024-02-14T08:52:43;25.80;;;3.50;;
46429;SDS011;32131;53.454;-6.180;2024-02-14T08:55:13;11.85;;;3.95;;
46429;SDS011;32131;53.454;-6.180;2024-02-14T08:57:46;22.45;;;3.92;;
46429;SDS011;32131;53.454;-6.180;2024-02-14T09:00:16;18.53;;;3.13;;
46429;SDS011;32131;53.454;-6.180;2024-02-14T09:02:47;13.43;;;3.30;;
46429;SDS011;32131;53.454;-6.180;2024-02-14T09:05:15;21.98;;;3.88;;
46429;SDS011;32131;53.454;-6.180;2024-02-14T09:07:46;17.38;;;2.58;;
46429;SDS011;32131;53.454;-6.180;2024-02-14T09:10:16;16.42;;;3.53;;
46429;SDS011;32131;53.454;-6.180;2024-02-14T09:12:44;21.35;;;3.45;;
46429;SDS011;32131;53.454;-6.180;2024-02-14T09:15:12;31.77;;;4.03;;
46429;SDS011;32131;53.454;-6.180;2024-02-14T09:17:42;20.52;;;4.63;;
46429;SDS011;32131;53.454;-6.180;2024-02-14T09:20:10;22.85;;;3.83;;
46429;SDS011;32131;53.454;-6.180;2024-02-14T09:22:41;22.40;;;3.53;;
46429;SDS011;32131;53.454;-6.180;2024-02-14T09:25:10;20.95;;;3.78;;
46429;SDS011;32131;53.454;-6.180;2024-02-14T09:27:41;21.50;;;4.82;;
46429;SDS011;32131;53.454;-6.180;2024-02-14T09:32:54;16.05;;;4.53;;
46429;SDS011;32131;53.454;-6.180;2024-02-14T09:35:22;11.73;;;4.18;;
46429;SDS011;32131;53.454;-6.180;2024-02-14T09:37:52;16.70;;;3.63;;
46429;SDS011;32131;53.454;-6.180;2024-02-14T09:40:20;17.20;;;3.80;;
46429;SDS011;32131;53.454;-6.180;2024-02-14T09:42:53;17.48;;;2.88;;
46429;SDS011;32131;53.454;-6.180;2024-02-14T09:45:25;7.05;;;2.88;;
46429;SDS011;32131;53.454;-6.180;2024-02-14T09:47:54;8.10;;;2.03;;
46429;SDS011;32131;53.454;-6.180;2024-02-14T09:50:27;11.90;;;1.88;;
46429;SDS011;32131;53.454;-6.180;2024-02-14T09:52:59;13.70;;;2.13;;
46429;SDS011;32131;53.454;-6.180;2024-02-14T09:55:34;8.65;;;1.67;;
46429;SDS011;32131;53.454;-6.180;2024-02-14T09:58:06;10.40;;;2.22;;
46429;SDS011;32131;53.454;-6.180;2024-02-14T10:00:35;8.65;;;1.98;;
46429;SDS011;32131;53.454;-6.180;2024-02-14T10:03:04;16.63;;;2.75;;
46429;SDS011;32131;53.454;-6.180;2024-02-14T10:05:35;6.28;;;1.98;;
46429;SDS011;32131;53.454;-6.180;2024-02-14T10:10:32;8.68;;;2.33;;
46429;SDS011;32131;53.454;-6.180;2024-02-14T10:13:03;8.20;;;2.60;;
46429;SDS011;32131;53.454;-6.180;2024-02-14T10:15:34;13.52;;;2.72;;
46429;SDS011;32131;53.454;-6.180;2024-02-14T10:18:04;11.43;;;2.42;;
46429;SDS011;32131;53.454;-6.180;2024-02-14T10:20:33;15.55;;;2.28;;
46429;SDS011;32131;53.454;-6.180;2024-02-14T10:23:10;10.00;;;1.98;;
46429;SDS011;32131;53.454;-6.180;2024-02-14T10:25:42;13.20;;;3.15;;
46429;SDS011;32131;53.454;-6.180;2024-02-14T10:28:12;10.77;;;2.58;;
46429;SDS011;32131;53.454;-6.180;2024-02-14T10:30:46;10.43;;;2.55;;
46429;SDS011;32131;53.454;-6.180;2024-02-14T10:33:18;10.40;;;2.40;;
46429;SDS011;32131;53.454;-6.180;2024-02-14T10:35:54;7.10;;;2.53;;
46429;SDS011;32131;53.454;-6.180;2024-02-14T10:38:29;11.95;;;2.05;;
46429;SDS011;32131;53.454;-6.180;2024-02-14T10:41:02;6.45;;;1.92;;
46429;SDS011;32131;53.454;-6.180;2024-02-14T10:43:40;8.15;;;1.55;;
46429;SDS011;32131;53.454;-6.180;2024-02-14T10:46:16;4.25;;;1.55;;
46429;SDS011;32131;53.454;-6.180;2024-02-14T10:48:49;8.63;;;1.63;;
46429;SDS011;32131;53.454;-6.180;2024-02-14T10:51:22;5.35;;;1.13;;
46429;SDS011;32131;53.454;-6.180;2024-02-14T10:53:53;7.55;;;1.58;;
46429;SDS011;32131;53.454;-6.180;2024-02-14T10:56:27;4.53;;;1.38;;
46429;SDS011;32131;53.454;-6.180;2024-02-14T10:58:59;4.93;;;1.25;;
46429;SDS011;32131;53.454;-6.180;2024-02-14T11:01:31;4.28;;;0.98;;
46429;SDS011;32131;53.454;-6.180;2024-02-14T11:04:01;1.83;;;0.60;;
46429;SDS011;32131;53.454;-6.180;2024-02-14T11:09:00;1.80;;;0.70;;
46429;SDS011;32131;53.454;-6.180;2024-02-14T11:11:34;5.90;;;0.80;;
46429;SDS011;32131;53.454;-6.180;2024-02-14T11:14:06;5.35;;;0.73;;
46429;SDS011;32131;53.454;-6.180;2024-02-14T11:16:40;4.63;;;0.70;;
46429;SDS011;32131;53.454;-6.180;2024-02-14T11:19:09;3.80;;;0.73;;
46429;SDS011;32131;53.454;-6.180;2024-02-14T11:21:40;3.75;;;0.50;;
46429;SDS011;32131;53.454;-6.180;2024-02-14T11:24:10;4.45;;;0.47;;
46429;SDS011;32131;53.454;-6.180;2024-02-14T11:26:45;2.22;;;0.75;;
46429;SDS011;32131;53.454;-6.180;2024-02-14T11:29:19;4.40;;;0.65;;
46429;SDS011;32131;53.454;-6.180;2024-02-14T11:31:58;5.43;;;0.68;;
46429;SDS011;32131;53.454;-6.180;2024-02-14T11:34:29;3.20;;;0.70;;
46429;SDS011;32131;53.454;-6.180;2024-02-14T11:37:04;6.65;;;0.82;;
46429;SDS011;32131;53.454;-6.180;2024-02-14T11:39:33;3.28;;;0.52;;
46429;SDS011;32131;53.454;-6.180;2024-02-14T11:42:02;4.03;;;0.75;;
46429;SDS011;32131;53.454;-6.180;2024-02-14T11:44:31;3.20;;;0.50;;
46429;SDS011;32131;53.454;-6.180;2024-02-14T11:47:01;2.47;;;0.50;;
46429;SDS011;32131;53.454;-6.180;2024-02-14T11:49:31;2.85;;;0.70;;
46429;SDS011;32131;53.454;-6.180;2024-02-14T11:52:00;2.28;;;0.73;;
46429;SDS011;32131;53.454;-6.180;2024-02-14T11:54:28;5.10;;;1.65;;
46429;SDS011;32131;53.454;-6.180;2024-02-14T11:56:59;3.33;;;0.98;;
46429;SDS011;32131;53.454;-6.180;2024-02-14T11:59:29;9.50;;;0.95;;
46429;SDS011;32131;53.454;-6.180;2024-02-14T12:02:05;2.35;;;0.75;;
46429;SDS011;32131;53.454;-6.180;2024-02-14T12:07:03;2.60;;;0.65;;
46429;SDS011;32131;53.454;-6.180;2024-02-14T12:09:31;7.13;;;0.70;;
46429;SDS011;32131;53.454;-6.180;2024-02-14T12:12:00;3.40;;;0.68;;
46429;SDS011;32131;53.454;-6.180;2024-02-14T12:14:32;1.67;;;0.60;;
46429;SDS011;32131;53.454;-6.180;2024-02-14T12:17:05;1.92;;;0.50;;
46429;SDS011;32131;53.454;-6.180;2024-02-14T12:19:34;4.65;;;0.50;;
46429;SDS011;32131;53.454;-6.180;2024-02-14T12:22:08;3.95;;;0.60;;
46429;SDS011;32131;53.454;-6.180;2024-02-14T12:24:44;3.63;;;0.60;;
46429;SDS011;32131;53.454;-6.180;2024-02-14T12:27:16;2.17;;;0.70;;
46429;SDS011;32131;53.454;-6.180;2024-02-14T12:29:47;3.38;;;0.70;;
46429;SDS011;32131;53.454;-6.180;2024-02-14T12:32:18;6.97;;;1.00;;
46429;SDS011;32131;53.454;-6.180;2024-02-14T12:37:15;2.45;;;0.63;;
46429;SDS011;32131;53.454;-6.180;2024-02-14T12:39:44;4.03;;;0.40;;
46429;SDS011;32131;53.454;-6.180;2024-02-14T12:42:12;9.30;;;1.17;;
46429;SDS011;32131;53.454;-6.180;2024-02-14T12:44:41;6.68;;;1.10;;
46429;SDS011;32131;53.454;-6.180;2024-02-14T12:47:09;7.60;;;1.00;;
46429;SDS011;32131;53.454;-6.180;2024-02-14T12:49:42;5.00;;;1.15;;
46429;SDS011;32131;53.454;-6.180;2024-02-14T12:52:16;6.53;;;1.15;;
46429;SDS011;32131;53.454;-6.180;2024-02-14T12:54:46;8.93;;;1.55;;
46429;SDS011;32131;53.454;-6.180;2024-02-14T12:57:20;16.10;;;1.63;;
46429;SDS011;32131;53.454;-6.180;2024-02-14T12:59:51;7.45;;;1.35;;
46429;SDS011;32131;53.454;-6.180;2024-02-14T13:02:25;15.57;;;1.75;;
46429;SDS011;32131;53.454;-6.180;2024-02-14T13:05:03;7.75;;;1.20;;
46429;SDS011;32131;53.454;-6.180;2024-02-14T13:07:38;10.82;;;1.63;;
46429;SDS011;32131;53.454;-6.180;2024-02-14T13:10:09;9.13;;;1.63;;
46429;SDS011;32131;53.454;-6.180;2024-02-14T13:13:20;9.73;;;1.83;;
46429;SDS011;32131;53.454;-6.180;2024-02-14T13:15:49;11.73;;;1.75;;
46429;SDS011;32131;53.454;-6.180;2024-02-14T13:18:21;8.80;;;1.58;;
46429;SDS011;32131;53.454;-6.180;2024-02-14T13:21:18;8.63;;;1.52;;
46429;SDS011;32131;53.454;-6.180;2024-02-14T13:30:25;10.48;;;2.00;;
46429;SDS011;32131;53.454;-6.180;2024-02-14T13:33:03;13.27;;;1.65;;
46429;SDS011;32131;53.454;-6.180;2024-02-14T13:35:33;14.40;;;1.95;;
46429;SDS011;32131;53.454;-6.180;2024-02-14T13:46:07;17.52;;;2.50;;
46429;SDS011;32131;53.454;-6.180;2024-02-14T13:49:54;9.65;;;2.10;;
46429;SDS011;32131;53.454;-6.180;2024-02-14T13:52:30;13.73;;;2.53;;
46429;SDS011;32131;53.454;-6.180;2024-02-14T13:55:20;18.42;;;3.85;;
46429;SDS011;32131;53.454;-6.180;2024-02-14T14:11:23;18.95;;;3.47;;
46429;SDS011;32131;53.454;-6.180;2024-02-14T14:18:02;17.58;;;3.30;;
46429;SDS011;32131;53.454;-6.180;2024-02-14T14:22:59;16.08;;;2.90;;
46429;SDS011;32131;53.454;-6.180;2024-02-14T14:25:30;15.90;;;3.13;;
46429;SDS011;32131;53.454;-6.180;2024-02-14T14:27:59;18.00;;;3.92;;
46429;SDS011;32131;53.454;-6.180;2024-02-14T14:30:32;25.45;;;3.88;;
46429;SDS011;32131;53.454;-6.180;2024-02-14T14:33:06;18.90;;;3.50;;
46429;SDS011;32131;53.454;-6.180;2024-02-14T14:35:44;20.48;;;3.50;;
46429;SDS011;32131;53.454;-6.180;2024-02-14T14:38:13;26.52;;;3.40;;
46429;SDS011;32131;53.454;-6.180;2024-02-14T14:40:41;13.30;;;3.03;;
46429;SDS011;32131;53.454;-6.180;2024-02-14T14:43:12;24.70;;;3.65;;
46429;SDS011;32131;53.454;-6.180;2024-02-14T14:45:42;21.48;;;4.22;;
46429;SDS011;32131;53.454;-6.180;2024-02-14T14:48:15;20.77;;;4.18;;
46429;SDS011;32131;53.454;-6.180;2024-02-14T14:50:44;17.83;;;4.20;;
46429;SDS011;32131;53.454;-6.180;2024-02-14T14:53:12;20.40;;;3.97;;
46429;SDS011;32131;53.454;-6.180;2024-02-14T14:55:51;17.10;;;3.47;;
46429;SDS011;32131;53.454;-6.180;2024-02-14T14:58:22;23.73;;;3.58;;
46429;SDS011;32131;53.454;-6.180;2024-02-14T15:00:54;22.60;;;3.53;;
46429;SDS011;32131;53.454;-6.180;2024-02-14T15:03:24;19.50;;;3.55;;
46429;SDS011;32131;53.454;-6.180;2024-02-14T15:05:53;10.45;;;3.00;;
46429;SDS011;32131;53.454;-6.180;2024-02-14T15:08:23;22.90;;;3.75;;
46429;SDS011;32131;53.454;-6.180;2024-02-14T15:10:54;21.50;;;3.97;;
46429;SDS011;32131;53.454;-6.180;2024-02-14T15:13:25;12.55;;;2.85;;
46429;SDS011;32131;53.454;-6.180;2024-02-14T15:15:55;22.08;;;3.63;;
46429;SDS011;32131;53.454;-6.180;2024-02-14T15:18:26;24.50;;;3.75;;
46429;SDS011;32131;53.454;-6.180;2024-02-14T15:20:54;20.95;;;3.45;;
46429;SDS011;32131;53.454;-6.180;2024-02-14T15:23:23;17.52;;;3.35;;
46429;SDS011;32131;53.454;-6.180;2024-02-14T15:25:51;19.95;;;3.45;;
46429;SDS011;32131;53.454;-6.180;2024-02-14T15:28:28;16.45;;;3.60;;
46429;SDS011;32131;53.454;-6.180;2024-02-14T15:30:58;15.23;;;3.45;;
46429;SDS011;32131;53.454;-6.180;2024-02-14T15:33:45;17.85;;;3.97;;
46429;SDS011;32131;53.454;-6.180;2024-02-14T15:36:14;22.27;;;3.88;;
46429;SDS011;32131;53.454;-6.180;2024-02-14T15:38:44;12.73;;;3.17;;
46429;SDS011;32131;53.454;-6.180;2024-02-14T15:41:12;24.38;;;4.32;;
46429;SDS011;32131;53.454;-6.180;2024-02-14T15:43:41;16.60;;;3.78;;
46429;SDS011;32131;53.454;-6.180;2024-02-14T15:46:11;19.88;;;4.22;;
46429;SDS011;32131;53.454;-6.180;2024-02-14T15:48:43;27.50;;;4.28;;